Airfield :
LOGIN :

Register | Disclaimer

   EN    FR    IT 

 










Legend :    VFR   Marginal VFR   IFR   Intensive IFR   Very Intensive IFR
Visi :
Ceiling :
>= 8 km
>= 3000ft
5 to 8 km
1000 to 3000 ft
1500m to 5 km
500 to 1000 ft
800 to 1500m
200 to 500 ft
< 800m
< 200 ft
Symbols :   Thunderstorms  Fog  Heavy snow  Heavy precipitations  Wind > 20 kt
SIGMETs :     Misc.  Thunderstorms  Icing  Turbulence  Mountain Waves  Volcanic Ashes







- Airport Elevation : 1411 ft
- IATA code : SZG


LOWS - Salzburg

CURRENT METAR :
  • 240550Z 15007KT CAVOK 22/16 Q1019 NOSIG

EXPIRED METARs :
  • 240520Z 17007KT CAVOK 20/15 Q1019 NOSIG
  • 240450Z 16006KT CAVOK 19/15 Q1019 NOSIG
  • 240420Z 13004KT 090V160 CAVOK 19/15 Q1019 NOSIG
  • 240350Z VRB01KT CAVOK 18/14 Q1019 NOSIG
  • 240320Z AUTO 14003KT 110V170 9999 NSC 18/14 Q1019

TAF TAF LOWS
Valid from the 24 at 06:00 until the 25 at 06:00 UTC


240515Z 2406/2506 15004KT CAVOK TX33/2416Z TN20/2503Z
BECMG 2408/2410 35004KT 9999 FEW070
BECMG 2417/2419 15004KT CAVOK
No reported NOTAMs for that airfield.



MET'MAP, your aeronautical weather chart ! - Copyright ORBIFLY December 2007 - Disclaimer

ORBIFLY MET'MAP TEAM :

Programming & Development : Alexandra Zaïnal
Concept & Development : Baudouin d'Aumeries
Co-Development & Prog : Marc-Olivier Méhu
Technical & hardware support : Manuel Goepfert

Contact : metmap@orbifly.com




SOURCES & CREDITS :

   NOAA